createdAt,value
2018-08-19T05:48:41.879Z,1000.8
2018-08-19T05:49:02.052Z,1000.8
2018-08-19T05:49:22.174Z,1000.8
2018-08-19T05:49:42.352Z,1000.8
2018-08-19T05:50:02.585Z,1000.8
2018-08-19T05:50:22.775Z,1000.8
2018-08-19T05:50:43.002Z,1000.7
2018-08-19T05:51:03.125Z,1000.8
2018-08-19T05:51:23.253Z,1000.8
2018-08-19T05:51:43.435Z,1000.8
2018-08-19T05:52:03.698Z,1000.7
2018-08-19T05:52:23.836Z,1000.8
2018-08-19T05:52:44.035Z,1000.8
2018-08-19T05:53:04.186Z,1000.8
2018-08-19T05:53:24.391Z,1000.8
2018-08-19T05:53:44.607Z,1000.8
2018-08-19T05:54:04.885Z,1000.8
2018-08-19T05:54:25.639Z,1000.8
2018-08-19T05:54:45.834Z,1000.8
2018-08-19T05:55:06.060Z,1000.8
2018-08-19T05:55:27.017Z,1000.8
2018-08-19T05:55:47.304Z,1000.8
2018-08-19T05:56:07.517Z,1000.8
2018-08-19T05:56:27.702Z,1000.8
2018-08-19T05:56:47.937Z,1000.8
2018-08-19T05:57:08.135Z,1000.8
2018-08-19T05:57:28.366Z,1000.8
2018-08-19T05:57:48.577Z,1000.9
2018-08-19T05:58:08.816Z,1000.8
2018-08-19T05:58:29.045Z,1000.8
2018-08-19T05:58:49.265Z,1000.8
2018-08-19T05:59:09.527Z,1000.8
2018-08-19T05:59:29.754Z,1000.8
2018-08-19T05:59:49.957Z,1000.8
2018-08-19T06:00:10.178Z,1000.9
2018-08-19T06:00:30.402Z,1000.8
2018-08-19T06:00:50.581Z,1000.8
2018-08-19T06:01:10.910Z,1000.8
2018-08-19T06:01:31.008Z,1000.9
2018-08-19T06:01:51.201Z,1000.8
2018-08-19T06:02:11.426Z,1000.8
2018-08-19T06:02:31.620Z,1000.8
2018-08-19T06:02:51.822Z,1000.8
2018-08-19T06:03:12.076Z,1000.8
2018-08-19T06:03:32.336Z,1000.9
2018-08-19T06:03:52.544Z,1000.8
2018-08-19T06:04:12.826Z,1000.9
2018-08-19T06:04:33.008Z,1000.9
2018-08-19T06:04:53.278Z,1000.9
2018-08-19T06:05:13.434Z,1000.8
2018-08-19T06:05:33.653Z,1000.8
2018-08-19T06:05:53.865Z,1000.9
2018-08-19T06:06:14.089Z,1000.9
2018-08-19T06:06:34.276Z,1000.9
2018-08-19T06:06:54.459Z,1000.9
2018-08-19T06:07:14.673Z,1000.9
2018-08-19T06:07:34.940Z,1000.9
2018-08-19T06:07:55.301Z,1000.9
2018-08-19T06:08:15.508Z,1000.9
2018-08-19T06:08:35.754Z,1000.9
2018-08-19T06:08:55.917Z,1000.9
2018-08-19T06:09:16.132Z,1000.9
2018-08-19T06:09:36.335Z,1000.9
2018-08-19T06:09:56.549Z,1000.9
2018-08-19T06:10:16.772Z,1000.9
2018-08-19T06:10:36.988Z,1000.9
2018-08-19T06:10:57.194Z,1000.9
2018-08-19T06:11:17.445Z,1000.9
2018-08-19T06:11:37.688Z,1000.9
2018-08-19T06:11:57.891Z,1000.9
2018-08-19T06:12:18.090Z,1000.9
2018-08-19T06:12:38.263Z,1001
2018-08-19T06:12:58.451Z,1000.9
2018-08-19T06:13:18.649Z,1001
2018-08-19T06:13:38.950Z,1001
2018-08-19T06:13:59.227Z,1000.9
2018-08-19T06:14:19.432Z,1000.9
2018-08-19T06:14:39.631Z,1001
2018-08-19T06:15:00.187Z,1000.9
2018-08-19T06:15:20.857Z,1000.9
2018-08-19T06:15:41.970Z,1000.9
2018-08-19T06:16:03.172Z,1001
2018-08-19T06:16:23.904Z,1001
2018-08-19T06:16:44.570Z,1000.9
2018-08-19T06:17:05.257Z,1000.9
2018-08-19T06:17:25.455Z,1000.9
2018-08-19T06:17:45.648Z,1000.9
2018-08-19T06:18:05.850Z,1000.9
2018-08-19T06:18:26.088Z,1000.9
2018-08-19T06:18:46.340Z,1000.9
2018-08-19T06:19:06.516Z,1001
2018-08-19T06:19:26.696Z,1000.9
2018-08-19T06:19:46.915Z,1000.9
2018-08-19T06:20:07.200Z,1000.9
2018-08-19T06:20:27.481Z,1001
2018-08-19T06:20:48.004Z,1001
2018-08-19T06:21:09.204Z,1001
2018-08-19T06:21:29.892Z,1001
2018-08-19T06:21:50.729Z,1001
2018-08-19T06:22:10.883Z,1001
2018-08-19T06:22:31.099Z,1001
2018-08-19T06:22:51.357Z,1001
2018-08-19T06:23:11.529Z,1001
2018-08-19T06:23:31.745Z,1001
2018-08-19T06:23:51.913Z,1001
2018-08-19T06:24:12.099Z,1001
2018-08-19T06:24:32.424Z,1001
2018-08-19T06:24:52.554Z,1001
2018-08-19T06:25:12.819Z,1001
2018-08-19T06:25:33.139Z,1001
2018-08-19T06:25:53.366Z,1001
2018-08-19T06:26:13.573Z,1001
2018-08-19T06:26:33.825Z,1001
2018-08-19T06:26:54.074Z,1001
2018-08-19T06:27:14.263Z,1001
2018-08-19T06:27:34.447Z,1001
2018-08-19T06:27:54.606Z,1001
2018-08-19T06:28:14.888Z,1001.1
2018-08-19T06:28:35.090Z,1001
2018-08-19T06:28:55.399Z,1001.1
2018-08-19T06:29:15.699Z,1001
2018-08-19T06:29:35.895Z,1001
2018-08-19T06:29:56.044Z,1001
2018-08-19T06:30:16.251Z,1001
2018-08-19T06:30:36.453Z,1001
2018-08-19T06:30:56.705Z,1001
2018-08-19T06:31:16.896Z,1001
2018-08-19T06:31:37.703Z,1001
2018-08-19T06:31:58.468Z,1001
2018-08-19T06:32:18.768Z,1001
2018-08-19T06:32:39.013Z,1001
2018-08-19T06:32:59.198Z,1001
2018-08-19T06:33:19.418Z,1001
2018-08-19T06:33:39.550Z,1001
2018-08-19T06:33:59.905Z,1001
2018-08-19T06:34:20.132Z,1001
2018-08-19T06:34:40.454Z,1001
2018-08-19T06:35:00.690Z,1001
2018-08-19T06:35:20.832Z,1001
2018-08-19T06:35:41.079Z,1001
2018-08-19T06:36:01.333Z,1001
2018-08-19T06:36:21.726Z,1001
2018-08-19T06:36:41.928Z,1001
2018-08-19T06:37:02.147Z,1001
2018-08-19T06:37:22.394Z,1001
2018-08-19T06:37:42.615Z,1001
2018-08-19T06:38:02.824Z,1001
2018-08-19T06:38:23.008Z,1001
2018-08-19T06:38:43.331Z,1001.1
2018-08-19T06:39:03.577Z,1001.1
2018-08-19T06:39:23.836Z,1001.1
2018-08-19T06:39:44.017Z,1001.1
2018-08-19T06:40:04.241Z,1001.1
2018-08-19T06:40:24.473Z,1001.1
2018-08-19T06:40:44.652Z,1001.1
2018-08-19T06:41:04.866Z,1001.1
2018-08-19T06:41:25.154Z,1001.1
2018-08-19T06:41:45.402Z,1001
2018-08-19T06:42:05.604Z,1001
2018-08-19T06:42:25.813Z,1001
2018-08-19T06:42:45.984Z,1001.1
2018-08-19T06:43:06.365Z,1001.1
2018-08-19T06:43:26.574Z,1001.1
2018-08-19T06:43:46.962Z,1001.1
2018-08-19T06:44:07.177Z,1001.1
2018-08-19T06:44:27.369Z,1001.1
2018-08-19T06:44:47.630Z,1001.1
2018-08-19T06:45:07.836Z,1001.1
2018-08-19T06:45:28.051Z,1001.1
2018-08-19T06:45:48.245Z,1001.1
2018-08-19T06:46:08.434Z,1001.1
2018-08-19T06:46:28.615Z,1001.1
2018-08-19T06:46:48.822Z,1001.1
2018-08-19T06:47:09.012Z,1001.1
2018-08-19T06:47:29.206Z,1001.1
2018-08-19T06:47:49.421Z,1001.1
2018-08-19T06:48:09.646Z,1001.1
2018-08-19T06:48:29.883Z,1001.1
2018-08-19T06:48:50.134Z,1001.1
2018-08-19T06:49:10.289Z,1001.1
2018-08-19T06:49:30.822Z,1001.1
2018-08-19T06:49:51.022Z,1001.1
2018-08-19T06:50:11.286Z,1001.1
2018-08-19T06:50:31.421Z,1001.1
2018-08-19T06:50:51.683Z,1001
2018-08-19T06:51:11.945Z,1001.1
2018-08-19T06:51:32.139Z,1001.1
2018-08-19T06:51:52.306Z,1001.1
2018-08-19T06:52:12.516Z,1001.1
2018-08-19T06:52:32.660Z,1001
2018-08-19T06:52:52.889Z,1001.1
2018-08-19T06:53:13.058Z,1001
2018-08-19T06:53:33.258Z,1001
2018-08-19T06:53:53.424Z,1001
2018-08-19T06:54:13.599Z,1001
2018-08-19T06:54:33.792Z,1001
2018-08-19T06:54:54.014Z,1001
2018-08-19T06:55:14.174Z,1001
2018-08-19T06:55:34.422Z,1001
2018-08-19T06:55:54.579Z,1001.1
2018-08-19T06:56:14.827Z,1001
2018-08-19T06:56:35.041Z,1001
2018-08-19T06:56:55.217Z,1001
2018-08-19T06:57:15.410Z,1001
2018-08-19T06:57:35.660Z,1001
2018-08-19T06:57:55.863Z,1001
2018-08-19T06:58:16.124Z,1001
2018-08-19T06:58:36.312Z,1001
2018-08-19T06:58:56.518Z,1001
2018-08-19T06:59:16.755Z,1001
2018-08-19T06:59:36.992Z,1000.9
2018-08-19T06:59:57.286Z,1000.9
2018-08-19T07:00:17.580Z,1000.9
2018-08-19T07:00:37.859Z,1001
2018-08-19T07:00:58.069Z,1001
2018-08-19T07:01:18.365Z,1001
2018-08-19T07:01:38.570Z,1001
2018-08-19T07:01:58.764Z,1000.9
2018-08-19T07:02:18.930Z,1001
2018-08-19T07:02:39.116Z,1001
2018-08-19T07:02:59.336Z,1001
2018-08-19T07:03:19.649Z,1000.9
2018-08-19T07:03:39.961Z,1001
2018-08-19T07:04:00.198Z,1001
2018-08-19T07:04:20.300Z,1000.9
2018-08-19T07:04:40.565Z,1000.9
2018-08-19T07:05:00.801Z,1000.9
2018-08-19T07:05:20.967Z,1000.9
2018-08-19T07:05:41.198Z,1000.9
2018-08-19T07:06:01.468Z,1000.9
2018-08-19T07:06:21.698Z,1000.9
2018-08-19T07:06:41.913Z,1000.9
2018-08-19T07:07:02.091Z,1000.9
2018-08-19T07:07:22.268Z,1000.9
2018-08-19T07:07:42.449Z,1000.9
2018-08-19T07:08:02.657Z,1001
2018-08-19T07:08:22.832Z,1001
2018-08-19T07:08:43.048Z,1000.9
2018-08-19T07:09:03.219Z,1001
2018-08-19T07:09:23.416Z,1000.9
2018-08-19T07:09:43.601Z,1001
2018-08-19T07:10:03.775Z,1000.9
2018-08-19T07:10:23.985Z,1001
2018-08-19T07:10:44.224Z,1001
2018-08-19T07:11:04.401Z,1000.9
2018-08-19T07:11:24.533Z,1000.9
2018-08-19T07:11:44.712Z,1001
2018-08-19T07:12:04.915Z,1000.9
2018-08-19T07:12:25.094Z,1001
2018-08-19T07:12:45.369Z,1001
2018-08-19T07:13:05.445Z,1001
2018-08-19T07:13:25.653Z,1001
2018-08-19T07:13:45.899Z,1001
2018-08-19T07:14:06.037Z,1001
2018-08-19T07:14:26.233Z,1001
2018-08-19T07:14:46.469Z,1001
2018-08-19T07:15:06.667Z,1001
2018-08-19T07:15:26.851Z,1001
2018-08-19T07:15:47.287Z,1001
2018-08-19T07:16:07.482Z,1001
2018-08-19T07:16:28.556Z,1001
2018-08-19T07:16:48.757Z,1001
2018-08-19T07:17:08.949Z,1001
2018-08-19T07:17:29.741Z,1001
2018-08-19T07:17:49.906Z,1001
2018-08-19T07:18:10.094Z,1001
2018-08-19T07:18:30.792Z,1001
2018-08-19T07:18:51.510Z,1001
2018-08-19T07:19:11.648Z,1001
2018-08-19T07:19:31.859Z,1001
2018-08-19T07:19:52.031Z,1001
2018-08-19T07:20:12.271Z,1001
2018-08-19T07:20:32.526Z,1001
2018-08-19T07:20:52.719Z,1001
2018-08-19T07:21:12.884Z,1001
2018-08-19T07:21:33.212Z,1001
2018-08-19T07:21:53.442Z,1001
2018-08-19T07:22:13.699Z,1001
2018-08-19T07:22:34.011Z,1001
2018-08-19T07:22:54.203Z,1001
2018-08-19T07:23:14.392Z,1001
2018-08-19T07:23:34.618Z,1001
2018-08-19T07:23:54.806Z,1001
2018-08-19T07:24:14.969Z,1001.1
2018-08-19T07:24:35.230Z,1001
2018-08-19T07:24:55.422Z,1001
2018-08-19T07:25:15.616Z,1001
2018-08-19T07:25:35.815Z,1001
2018-08-19T07:25:55.974Z,1001
2018-08-19T07:26:16.186Z,1001
2018-08-19T07:26:36.367Z,1001
2018-08-19T07:26:56.671Z,1001
2018-08-19T07:27:16.851Z,1001
2018-08-19T07:27:37.062Z,1001
2018-08-19T07:27:57.273Z,1001
2018-08-19T07:28:17.473Z,1001
2018-08-19T07:28:37.646Z,1001
2018-08-19T07:28:57.847Z,1000.9
2018-08-19T07:29:18.037Z,1001
2018-08-19T07:29:38.275Z,1001
2018-08-19T07:29:58.507Z,1000.9
2018-08-19T07:30:18.776Z,1001
2018-08-19T07:30:38.995Z,1000.9
2018-08-19T07:30:59.209Z,1001
2018-08-19T07:31:19.416Z,1000.9
2018-08-19T07:31:39.685Z,1001
2018-08-19T07:31:59.878Z,1001
2018-08-19T07:32:20.105Z,1001
2018-08-19T07:32:40.338Z,1001
2018-08-19T07:33:00.548Z,1001
2018-08-19T07:33:20.829Z,1001
2018-08-19T07:33:41.806Z,1001
2018-08-19T07:34:02.605Z,1001
2018-08-19T07:34:23.353Z,1001
2018-08-19T07:34:43.585Z,1001
2018-08-19T07:35:03.791Z,1001
2018-08-19T07:35:23.955Z,1001
2018-08-19T07:35:44.146Z,1001
2018-08-19T07:36:04.377Z,1001
2018-08-19T07:36:24.572Z,1001
2018-08-19T07:36:44.814Z,1001
2018-08-19T07:37:05.035Z,1001
2018-08-19T07:37:25.245Z,1001
2018-08-19T07:37:45.414Z,1001
2018-08-19T07:38:05.592Z,1001
2018-08-19T07:38:25.838Z,1001
2018-08-19T07:38:46.034Z,1001
2018-08-19T07:39:06.245Z,1001
2018-08-19T07:39:27.267Z,1001
2018-08-19T07:39:47.632Z,1001
2018-08-19T07:40:08.067Z,1001
2018-08-19T07:40:28.552Z,1001
2018-08-19T07:40:49.142Z,1001
2018-08-19T07:41:09.348Z,1001
2018-08-19T07:41:29.546Z,1001
2018-08-19T07:41:49.785Z,1000.9
2018-08-19T07:42:09.960Z,1001
2018-08-19T07:42:30.512Z,1000.9
2018-08-19T07:42:50.825Z,1001
2018-08-19T07:43:11.328Z,1001
2018-08-19T07:43:31.665Z,1001
2018-08-19T07:43:51.787Z,1001
2018-08-19T07:44:12.033Z,1001
2018-08-19T07:44:32.846Z,1000.9
2018-08-19T07:44:53.604Z,1001
2018-08-19T07:45:13.876Z,1000.9
2018-08-19T07:45:34.273Z,1001
2018-08-19T07:45:54.511Z,1000.9
2018-08-19T07:46:14.849Z,1000.9
2018-08-19T07:46:35.241Z,1001
2018-08-19T07:46:55.562Z,1000.9
2018-08-19T07:47:15.724Z,1000.9
2018-08-19T07:47:35.888Z,1000.9
2018-08-19T07:47:56.075Z,1000.9
2018-08-19T07:48:16.332Z,1001
2018-08-19T07:48:36.745Z,1000.9
2018-08-19T07:48:57.621Z,1001
2018-08-19T07:49:17.833Z,1000.9
2018-08-19T07:49:38.029Z,1001
2018-08-19T07:49:58.199Z,1000.9
2018-08-19T07:50:18.335Z,1001
2018-08-19T07:50:38.548Z,1001
2018-08-19T07:50:58.686Z,1001
2018-08-19T07:51:18.883Z,1001
2018-08-19T07:51:39.137Z,1001
2018-08-19T07:51:59.215Z,1001
2018-08-19T07:52:19.377Z,1001
2018-08-19T07:52:39.521Z,1001
2018-08-19T07:52:59.646Z,1001
2018-08-19T07:53:19.821Z,1001
2018-08-19T07:53:40.000Z,1001
2018-08-19T07:54:00.186Z,1001
2018-08-19T07:54:20.365Z,1001
2018-08-19T07:54:40.524Z,1001
2018-08-19T07:55:00.643Z,1001.1
2018-08-19T07:55:20.795Z,1001
2018-08-19T07:55:40.950Z,1001.1
2018-08-19T07:56:01.154Z,1001
2018-08-19T07:56:21.290Z,1001
2018-08-19T07:56:41.450Z,1001
2018-08-19T07:57:01.664Z,1001
2018-08-19T07:57:21.786Z,1001
2018-08-19T07:57:41.970Z,1001
2018-08-19T07:58:02.143Z,1001
2018-08-19T07:58:22.308Z,1001
2018-08-19T07:58:42.987Z,1001
2018-08-19T07:59:03.123Z,1001.1
2018-08-19T07:59:23.280Z,1001
2018-08-19T07:59:43.427Z,1001
2018-08-19T08:00:03.579Z,1001
2018-08-19T08:00:23.738Z,1001
2018-08-19T08:00:43.912Z,1001
2018-08-19T08:01:05.313Z,1001
2018-08-19T08:01:25.473Z,1001
2018-08-19T08:01:45.620Z,1001
2018-08-19T08:02:06.915Z,1001
2018-08-19T08:02:27.204Z,1000.9
2018-08-19T08:02:47.400Z,1000.9
2018-08-19T08:03:07.582Z,1001
2018-08-19T08:03:27.845Z,1000.9
2018-08-19T08:03:48.065Z,1001
2018-08-19T08:04:08.275Z,1000.9
2018-08-19T08:04:28.582Z,1001
2018-08-19T08:04:48.739Z,1001
2018-08-19T08:05:09.023Z,1000.9
2018-08-19T08:05:29.256Z,1001
2018-08-19T08:05:49.579Z,1001
2018-08-19T08:06:09.794Z,1001
2018-08-19T08:06:29.994Z,1001
2018-08-19T08:06:50.215Z,1001
2018-08-19T08:07:10.443Z,1001
2018-08-19T08:07:30.627Z,1001
2018-08-19T08:07:50.801Z,1001
2018-08-19T08:08:11.043Z,1001
2018-08-19T08:08:31.227Z,1001
2018-08-19T08:08:51.446Z,1001
2018-08-19T08:09:11.842Z,1001
2018-08-19T08:09:32.018Z,1001
2018-08-19T08:09:52.286Z,1001
2018-08-19T08:10:12.499Z,1001
2018-08-19T08:10:32.645Z,1001
2018-08-19T08:10:53.012Z,1001
2018-08-19T08:11:13.183Z,1001
2018-08-19T08:11:33.390Z,1001
2018-08-19T08:11:53.530Z,1001
2018-08-19T08:12:13.679Z,1001
2018-08-19T08:12:33.844Z,1001
2018-08-19T08:12:54.038Z,1001
2018-08-19T08:13:14.282Z,1001
2018-08-19T08:13:34.458Z,1001
2018-08-19T08:13:54.747Z,1001
2018-08-19T08:14:14.850Z,1001
2018-08-19T08:14:35.047Z,1001
2018-08-19T08:14:55.270Z,1001
2018-08-19T08:15:15.430Z,1001
2018-08-19T08:15:36.200Z,1001
2018-08-19T08:15:56.397Z,1001
2018-08-19T08:16:16.562Z,1001
2018-08-19T08:16:36.790Z,1001
2018-08-19T08:16:57.611Z,1001
2018-08-19T08:17:17.886Z,1001
2018-08-19T08:17:38.025Z,1001
2018-08-19T08:17:58.246Z,1001
2018-08-19T08:18:19.893Z,1001
2018-08-19T08:18:40.088Z,1001
2018-08-19T08:19:00.231Z,1001
2018-08-19T08:19:20.508Z,1001
2018-08-19T08:19:40.706Z,1001
2018-08-19T08:20:00.887Z,1001
2018-08-19T08:20:21.083Z,1001
2018-08-19T08:20:41.254Z,1001
2018-08-19T08:21:01.530Z,1001
2018-08-19T08:21:22.512Z,1001
2018-08-19T08:21:42.768Z,1001
2018-08-19T08:22:03.700Z,1001
2018-08-19T08:22:23.919Z,1001
2018-08-19T08:22:44.129Z,1001
2018-08-19T08:23:04.304Z,1001
2018-08-19T08:23:24.488Z,1000.9
2018-08-19T08:23:44.742Z,1000.9
2018-08-19T08:24:04.913Z,1000.9
2018-08-19T08:24:25.105Z,1001
2018-08-19T08:24:45.645Z,1001
2018-08-19T08:25:05.886Z,1001
2018-08-19T08:25:26.819Z,1001
2018-08-19T08:25:47.004Z,1001
2018-08-19T08:26:07.213Z,1001
2018-08-19T08:26:27.423Z,1001
2018-08-19T08:26:47.605Z,1001
2018-08-19T08:27:07.828Z,1001
2018-08-19T08:27:28.065Z,1001
2018-08-19T08:27:48.440Z,1001
2018-08-19T08:28:08.658Z,1001
2018-08-19T08:28:29.138Z,1001
2018-08-19T08:28:49.357Z,1001
2018-08-19T08:29:09.772Z,1001
2018-08-19T08:29:37.343Z,1001
2018-08-19T08:30:06.562Z,1001
2018-08-19T08:30:27.277Z,1001
2018-08-19T08:30:47.779Z,1001
2018-08-19T08:31:08.656Z,1001
2018-08-19T08:31:29.396Z,1000.9
2018-08-19T08:31:49.624Z,1001
2018-08-19T08:32:10.389Z,1001
2018-08-19T08:32:31.453Z,1001
2018-08-19T08:32:51.646Z,1000.9
2018-08-19T08:33:11.845Z,1001
2018-08-19T08:33:33.879Z,1000.9
2018-08-19T08:33:54.071Z,1000.9
2018-08-19T08:34:14.353Z,1000.9
2018-08-19T08:34:34.732Z,1000.9
2018-08-19T08:34:54.939Z,1000.9
2018-08-19T08:35:15.914Z,1000.9
2018-08-19T08:35:36.244Z,1001
2018-08-19T08:35:56.487Z,1000.9
2018-08-19T08:36:16.742Z,1000.9
2018-08-19T08:36:37.029Z,1001
2018-08-19T08:36:57.309Z,1001
2018-08-19T08:37:17.563Z,1001
2018-08-19T08:37:37.872Z,1001
2018-08-19T08:37:58.089Z,1001
2018-08-19T08:38:18.356Z,1001
2018-08-19T08:38:38.571Z,1001
2018-08-19T08:38:58.823Z,1001
2018-08-19T08:39:19.547Z,1001
2018-08-19T08:39:40.357Z,1001
2018-08-19T08:40:02.128Z,1001
2018-08-19T08:40:22.413Z,1001
2018-08-19T08:40:42.673Z,1001
2018-08-19T08:41:02.798Z,1001
2018-08-19T08:41:23.125Z,1001
2018-08-19T08:41:43.488Z,1001
2018-08-19T08:42:03.697Z,1001
2018-08-19T08:42:23.897Z,1000.9
2018-08-19T08:42:44.104Z,1000.9
2018-08-19T08:43:04.980Z,1000.9
2018-08-19T08:43:25.924Z,1000.9
2018-08-19T08:43:46.094Z,1000.9
2018-08-19T08:44:06.268Z,1001
2018-08-19T08:44:26.421Z,1001
2018-08-19T08:44:46.788Z,1000.9
2018-08-19T08:45:06.869Z,1001
2018-08-19T08:45:27.589Z,1000.9
2018-08-19T08:45:47.742Z,1001
2018-08-19T08:46:07.947Z,1001
2018-08-19T08:46:29.063Z,1000.9
2018-08-19T08:46:49.291Z,1001
2018-08-19T08:47:11.522Z,1000.9
2018-08-19T08:47:34.047Z,1000.9
2018-08-19T08:47:54.428Z,1000.9
2018-08-19T08:48:14.582Z,1000.9
2018-08-19T08:48:34.739Z,1000.9
2018-08-19T08:48:54.880Z,1000.9
2018-08-19T08:49:15.732Z,1000.9
2018-08-19T08:49:35.942Z,1000.9
2018-08-19T08:49:56.117Z,1000.9
2018-08-19T08:50:16.816Z,1000.9
2018-08-19T08:50:37.014Z,1000.9
2018-08-19T08:50:57.184Z,1000.9
2018-08-19T08:51:17.844Z,1000.9
2018-08-19T08:51:38.000Z,1000.9
2018-08-19T08:51:58.282Z,1000.9
2018-08-19T08:52:18.592Z,1001
2018-08-19T08:52:38.814Z,1000.9
2018-08-19T08:52:59.190Z,1000.9
2018-08-19T08:53:19.472Z,1000.8
2018-08-19T08:53:39.620Z,1000.9
2018-08-19T08:53:59.810Z,1000.9
2018-08-19T08:54:20.000Z,1000.9
2018-08-19T08:54:40.716Z,1000.9
2018-08-19T08:55:00.855Z,1000.9
2018-08-19T08:55:21.060Z,1000.9
2018-08-19T08:55:41.238Z,1000.8
2018-08-19T08:56:01.459Z,1000.8
2018-08-19T08:56:21.733Z,1000.9
2018-08-19T08:56:41.870Z,1000.8
2018-08-19T08:57:02.093Z,1000.8
2018-08-19T08:57:22.901Z,1000.8
2018-08-19T08:57:43.039Z,1000.8
2018-08-19T08:58:03.254Z,1000.8
2018-08-19T08:58:23.414Z,1000.8
2018-08-19T08:58:43.680Z,1000.8
2018-08-19T08:59:03.990Z,1000.8
2018-08-19T08:59:24.324Z,1000.8
2018-08-19T08:59:44.529Z,1000.8
2018-08-19T09:00:04.799Z,1000.8
2018-08-19T09:00:25.079Z,1000.8
2018-08-19T09:00:45.271Z,1000.7
2018-08-19T09:01:05.509Z,1000.8
2018-08-19T09:01:25.703Z,1000.8
2018-08-19T09:01:45.895Z,1000.7
2018-08-19T09:02:06.750Z,1000.8
2018-08-19T09:02:26.980Z,1000.8
2018-08-19T09:02:50.001Z,1000.8
2018-08-19T09:03:11.292Z,1000.8
2018-08-19T09:03:31.933Z,1000.8
2018-08-19T09:03:53.097Z,1000.8
2018-08-19T09:04:13.348Z,1000.7
2018-08-19T09:04:34.879Z,1000.8
2018-08-19T09:04:55.141Z,1000.7
2018-08-19T09:05:15.372Z,1000.7
2018-08-19T09:05:36.340Z,1000.7
2018-08-19T09:05:56.643Z,1000.7
2018-08-19T09:06:16.828Z,1000.7
2018-08-19T09:06:37.020Z,1000.7
2018-08-19T09:06:57.207Z,1000.7
2018-08-19T09:07:17.413Z,1000.7
2018-08-19T09:07:37.629Z,1000.7
2018-08-19T09:07:57.845Z,1000.7
2018-08-19T09:08:19.831Z,1000.7
2018-08-19T09:08:40.031Z,1000.7
2018-08-19T09:09:00.254Z,1000.7
2018-08-19T09:09:20.415Z,1000.7
2018-08-19T09:09:40.603Z,1000.7
2018-08-19T09:10:00.778Z,1000.7
2018-08-19T09:10:20.962Z,1000.6
2018-08-19T09:10:41.281Z,1000.6
2018-08-19T09:11:01.457Z,1000.6
2018-08-19T09:11:21.726Z,1000.6
2018-08-19T09:11:42.007Z,1000.6
2018-08-19T09:12:02.320Z,1000.6
2018-08-19T09:12:22.512Z,1000.6
2018-08-19T09:12:43.620Z,1000.6
2018-08-19T09:13:04.008Z,1000.6
2018-08-19T09:13:24.362Z,1000.6
2018-08-19T09:13:44.598Z,1000.6
2018-08-19T09:14:04.825Z,1000.6
2018-08-19T09:14:24.997Z,1000.6
2018-08-19T09:14:45.139Z,1000.6
2018-08-19T09:15:05.317Z,1000.6
2018-08-19T09:15:25.490Z,1000.6
2018-08-19T09:15:45.688Z,1000.6
2018-08-19T09:16:05.868Z,1000.6
2018-08-19T09:16:26.052Z,1000.6
2018-08-19T09:16:46.226Z,1000.6
2018-08-19T09:17:06.418Z,1000.6
2018-08-19T09:17:26.591Z,1000.5
2018-08-19T09:17:46.803Z,1000.6
2018-08-19T09:18:07.189Z,1000.6
2018-08-19T09:18:27.418Z,1000.5
2018-08-19T09:18:47.575Z,1000.6
2018-08-19T09:19:08.573Z,1000.5
2018-08-19T09:19:28.834Z,1000.5
2018-08-19T09:19:49.025Z,1000.5
2018-08-19T09:20:09.225Z,1000.5
2018-08-19T09:20:29.361Z,1000.5
2018-08-19T09:20:51.618Z,1000.5
2018-08-19T09:21:11.849Z,1000.5
2018-08-19T09:21:32.692Z,1000.5
2018-08-19T09:21:53.023Z,1000.5
2018-08-19T09:22:13.207Z,1000.5
2018-08-19T09:22:33.439Z,1000.5
2018-08-19T09:22:54.226Z,1000.5
2018-08-19T09:23:14.792Z,1000.5
2018-08-19T09:23:34.829Z,1000.5
2018-08-19T09:23:56.932Z,1000.5
2018-08-19T09:24:17.713Z,1000.5
2018-08-19T09:24:37.872Z,1000.5
2018-08-19T09:24:58.113Z,1000.5
2018-08-19T09:25:18.307Z,1000.5
2018-08-19T09:25:38.573Z,1000.5
2018-08-19T09:25:58.863Z,1000.5
2018-08-19T09:26:19.885Z,1000.5
2018-08-19T09:26:40.150Z,1000.5
2018-08-19T09:27:00.514Z,1000.5
2018-08-19T09:27:20.753Z,1000.5
2018-08-19T09:27:41.189Z,1000.5
2018-08-19T09:28:01.436Z,1000.5
2018-08-19T09:28:21.779Z,1000.4
2018-08-19T09:28:43.531Z,1000.5
2018-08-19T09:29:04.050Z,1000.4
2018-08-19T09:29:24.489Z,1000.5
2018-08-19T09:29:44.874Z,1000.4
2018-08-19T09:30:05.193Z,1000.4
2018-08-19T09:30:26.054Z,1000.4
2018-08-19T09:30:46.785Z,1000.4
2018-08-19T09:31:08.054Z,1000.4
2018-08-19T09:31:28.405Z,1000.4
2018-08-19T09:31:48.621Z,1000.4
2018-08-19T09:32:09.074Z,1000.4
2018-08-19T09:32:29.415Z,1000.4
2018-08-19T09:32:49.800Z,1000.4
2018-08-19T09:33:10.511Z,1000.4
2018-08-19T09:33:30.971Z,1000.4
2018-08-19T09:33:51.961Z,1000.4
2018-08-19T09:34:12.249Z,1000.4
2018-08-19T09:34:32.442Z,1000.4
2018-08-19T09:34:52.708Z,1000.3
2018-08-19T09:35:12.898Z,1000.3
2018-08-19T09:35:33.137Z,1000.3
2018-08-19T09:35:53.311Z,1000.3
2018-08-19T09:36:13.514Z,1000.3
2018-08-19T09:36:34.600Z,1000.3
2018-08-19T09:36:55.163Z,1000.3
2018-08-19T09:37:15.521Z,1000.3
2018-08-19T09:37:35.803Z,1000.3
2018-08-19T09:37:56.088Z,1000.3
2018-08-19T09:38:17.041Z,1000.3
2018-08-19T09:38:37.314Z,1000.3
2018-08-19T09:38:57.507Z,1000.3
2018-08-19T09:39:17.749Z,1000.3
2018-08-19T09:39:38.588Z,1000.3
2018-08-19T09:39:59.650Z,1000.2
2018-08-19T09:40:41.442Z,1000.2
2018-08-19T09:41:03.857Z,1000.3
2018-08-19T09:41:32.436Z,1000.3
2018-08-19T09:41:56.671Z,1000.3
2018-08-19T09:42:21.117Z,1000.3
2018-08-19T09:42:43.524Z,1000.2
2018-08-19T09:43:05.379Z,1000.2
2018-08-19T09:43:27.861Z,1000.3
2018-08-19T09:43:48.514Z,1000.2
2018-08-19T09:44:09.243Z,1000.2
2018-08-19T09:44:29.573Z,1000.2
2018-08-19T09:44:50.215Z,1000.2
2018-08-19T09:45:10.830Z,1000.2
2018-08-19T09:45:34.028Z,1000.2
2018-08-19T09:45:54.204Z,1000.2
2018-08-19T09:46:14.476Z,1000.2
2018-08-19T09:46:34.620Z,1000.2
2018-08-19T09:46:54.817Z,1000.2
2018-08-19T09:47:15.009Z,1000.2
2018-08-19T09:47:35.835Z,1000.2
2018-08-19T09:47:56.771Z,1000.2
2018-08-19T09:48:16.994Z,1000.2
2018-08-19T09:48:37.534Z,1000.2
2018-08-19T09:48:58.698Z,1000.2
2018-08-19T09:49:18.890Z,1000.2
2018-08-19T09:49:39.136Z,1000.2
2018-08-19T09:49:59.350Z,1000.2
2018-08-19T09:50:19.551Z,1000.2
2018-08-19T09:50:39.786Z,1000.3
2018-08-19T09:51:01.399Z,1000.2
2018-08-19T09:51:21.586Z,1000.2
2018-08-19T09:51:41.777Z,1000.2
2018-08-19T09:52:02.758Z,1000.2
2018-08-19T09:52:22.941Z,1000.2
2018-08-19T09:52:43.120Z,1000.2
2018-08-19T09:53:03.370Z,1000.2
2018-08-19T09:53:23.552Z,1000.2
2018-08-19T09:53:43.720Z,1000.2
2018-08-19T09:54:03.889Z,1000.1
2018-08-19T09:54:24.206Z,1000.2
2018-08-19T09:54:44.397Z,1000.2
2018-08-19T09:55:04.627Z,1000.2
2018-08-19T09:55:24.847Z,1000.2
2018-08-19T09:55:45.032Z,1000.1
2018-08-19T09:56:05.224Z,1000.1
2018-08-19T09:56:25.569Z,1000.2
2018-08-19T09:56:45.881Z,1000.1
2018-08-19T09:57:06.146Z,1000.1
2018-08-19T09:57:26.397Z,1000.1
2018-08-19T09:57:46.609Z,1000.1
2018-08-19T09:58:06.932Z,1000.1
2018-08-19T09:58:27.646Z,1000.1
2018-08-19T09:58:49.896Z,1000.1
2018-08-19T09:59:10.124Z,1000.1
2018-08-19T09:59:30.421Z,1000.1
2018-08-19T09:59:50.600Z,1000.1
2018-08-19T10:00:10.818Z,1000.1
2018-08-19T10:00:31.000Z,1000.1
2018-08-19T10:00:51.211Z,1000.1
2018-08-19T10:01:12.338Z,1000.1
2018-08-19T10:01:32.618Z,1000.1
2018-08-19T10:01:52.827Z,1000
2018-08-19T10:02:13.189Z,1000
2018-08-19T10:02:33.427Z,1000
2018-08-19T10:02:53.648Z,1000
2018-08-19T10:03:13.958Z,1000
2018-08-19T10:03:34.188Z,1000
2018-08-19T10:03:55.135Z,1000
2018-08-19T10:04:15.398Z,1000
2018-08-19T10:04:35.848Z,1000
2018-08-19T10:04:56.231Z,1000
2018-08-19T10:05:16.634Z,1000
2018-08-19T10:05:36.919Z,1000
2018-08-19T10:05:57.241Z,999.9
2018-08-19T10:06:17.476Z,1000
2018-08-19T10:06:37.737Z,999.9
2018-08-19T10:06:58.005Z,1000
2018-08-19T10:07:18.228Z,999.9
2018-08-19T10:07:38.546Z,1000
2018-08-19T10:07:59.048Z,999.9
2018-08-19T10:08:19.341Z,999.9
2018-08-19T10:08:39.678Z,999.9
2018-08-19T10:08:59.961Z,999.9
2018-08-19T10:09:20.158Z,999.9
2018-08-19T10:09:41.287Z,999.9
2018-08-19T10:10:01.402Z,999.9
2018-08-19T10:10:21.537Z,999.9
2018-08-19T10:10:43.236Z,999.9